Time;durP1;ratioP1;P1;durP2;ratioP2;P2;SDS_P1;SDS_P2;PMS_P1;PMS_P2;Temp;Humidity;BMP_temperature;BMP_pressure;BME280_temperature;BME280_humidity;BME280_pressure;Samples;Min_cycle;Max_cycle;Signal;HPM_P1;HPM_P2
2022/10/29 00:00:50;;;;;;;4.60;1.98;;;;;;;12.10;43.91;94981.84;5035529;28;20108;-77
2022/10/29 00:03:15;;;;;;;2.33;1.70;;;;;;;12.12;44.31;94986.88;5036112;28;20112;-77
2022/10/29 00:05:41;;;;;;;4.22;1.20;;;;;;;12.03;44.14;94973.41;5034782;28;20021;-77
2022/10/29 00:08:06;;;;;;;5.07;1.60;;;;;;;11.92;44.33;94953.38;5035561;28;20111;-77
2022/10/29 00:10:32;;;;;;;1.77;1.48;;;;;;;12.07;44.04;94973.66;5033270;28;20025;-78
2022/10/29 00:13:02;;;;;;;3.00;1.20;;;;;;;12.07;43.93;94973.66;5035980;28;20032;-77
2022/10/29 00:15:27;;;;;;;1.92;1.17;;;;;;;11.97;44.02;94959.41;5034247;28;20017;-77
2022/10/29 00:17:53;;;;;;;3.22;1.00;;;;;;;12.00;44.29;94969.47;5035601;28;20419;-77
2022/10/29 00:20:19;;;;;;;1.45;0.98;;;;;;;11.99;44.25;94967.88;5034513;28;20025;-77
2022/10/29 00:22:45;;;;;;;1.00;1.00;;;;;;;11.95;44.15;94958.91;5034478;28;20039;-78
2022/10/29 00:25:11;;;;;;;3.38;1.20;;;;;;;11.95;44.16;94956.22;5034538;28;20029;-78
2022/10/29 00:27:36;;;;;;;1.20;1.00;;;;;;;11.91;44.32;94954.44;5035655;28;20025;-77
2022/10/29 00:30:02;;;;;;;3.08;1.05;;;;;;;11.87;44.10;94946.25;5034588;28;21138;-77
2022/10/29 00:32:27;;;;;;;1.90;1.05;;;;;;;11.87;43.85;94948.91;5033036;28;20052;-76
2022/10/29 00:34:52;;;;;;;2.08;1.50;;;;;;;11.70;44.02;94911.34;5019183;28;20047;-77
2022/10/29 00:37:18;;;;;;;3.25;1.70;;;;;;;11.49;43.98;94883.47;5035176;28;20120;-77
2022/10/29 00:39:43;;;;;;;1.75;1.17;;;;;;;11.69;43.92;94915.09;5035502;28;20025;-78
2022/10/29 00:42:16;;;;;;;4.60;1.17;;;;;;;11.87;44.22;94943.59;5033942;28;20037;-78
2022/10/29 00:44:42;;;;;;;2.00;1.65;;;;;;;11.59;44.29;94904.59;5034477;28;20513;-78
2022/10/29 00:47:26;;;;;;;1.80;1.00;;;;;;;11.80;44.29;94948.50;5032929;28;20106;-77
2022/10/29 00:49:58;;;;;;;1.20;1.10;;;;;;;11.81;44.23;94954.63;5037191;28;20087;-78
2022/10/29 00:52:28;;;;;;;1.98;1.40;;;;;;;11.76;44.15;94954.72;5033860;28;20130;-78
2022/10/29 00:54:55;;;;;;;2.70;1.38;;;;;;;11.51;44.43;94913.28;5035429;28;20480;-77
2022/10/29 00:57:28;;;;;;;3.67;1.33;;;;;;;11.67;44.34;94938.59;5033507;28;20087;-77
2022/10/29 00:59:54;;;;;;;2.10;1.40;;;;;;;11.54;44.48;94934.03;5033175;28;20036;-77
2022/10/29 01:02:22;;;;;;;1.42;1.27;;;;;;;11.49;44.44;94932.19;5032939;28;20029;-77
2022/10/29 01:04:48;;;;;;;1.35;0.90;;;;;;;11.58;44.36;94953.69;5017629;28;20044;-77
2022/10/29 01:07:13;;;;;;;6.03;1.10;;;;;;;11.51;44.62;94938.06;5035244;28;20617;-77
2022/10/29 01:09:39;;;;;;;1.65;1.38;;;;;;;11.42;44.33;94920.34;5016093;28;20025;-77
2022/10/29 01:12:15;;;;;;;0.80;0.60;;;;;;;11.57;44.38;94950.22;5034729;28;20100;-77
2022/10/29 01:15:22;;;;;;;1.33;0.77;;;;;;;11.51;44.37;94934.59;5036776;28;20033;-77
2022/10/29 01:18:05;;;;;;;1.15;0.90;;;;;;;11.54;44.61;94939.38;5035250;28;20053;-77
2022/10/29 01:20:40;;;;;;;4.88;0.90;;;;;;;11.49;44.93;94926.09;5015272;28;20025;-77
2022/10/29 01:23:38;;;;;;;1.42;1.08;;;;;;;11.50;44.83;94922.31;5031238;28;20109;-77
2022/10/29 01:26:16;;;;;;;1.88;1.20;;;;;;;11.49;44.56;94915.44;5035191;28;20036;-77
2022/10/29 01:29:23;;;;;;;1.13;0.70;;;;;;;11.43;44.46;94904.06;5027243;28;20037;-78
2022/10/29 01:31:59;;;;;;;2.55;1.10;;;;;;;11.42;44.66;94907.81;4969148;28;20051;-77
2022/10/29 01:34:33;;;;;;;1.13;0.90;;;;;;;11.37;44.67;94907.09;5033974;28;20029;-78
2022/10/29 01:37:09;;;;;;;2.03;1.33;;;;;;;11.36;44.78;94921.50;5015811;28;20386;-77
2022/10/29 01:39:54;;;;;;;1.67;1.38;;;;;;;11.24;44.89;94902.53;5016844;28;20496;-77
2022/10/29 01:42:44;;;;;;;2.90;1.40;;;;;;;11.29;45.14;94921.09;5035837;28;20029;-77
2022/10/29 01:45:20;;;;;;;1.67;1.30;;;;;;;11.07;45.02;94901.16;5035834;28;20033;-77
2022/10/29 01:47:53;;;;;;;2.75;1.42;;;;;;;11.26;45.09;94924.31;5038319;28;20131;-77
2022/10/29 01:50:21;;;;;;;2.17;1.40;;;;;;;11.26;45.46;94918.97;5032397;28;20033;-78
2022/10/29 01:52:48;;;;;;;8.77;1.88;;;;;;;11.08;45.47;94892.09;5034587;28;20087;-77
2022/10/29 01:55:29;;;;;;;2.53;1.38;;;;;;;11.09;45.43;94901.69;5036027;28;20027;-77
2022/10/29 01:57:54;;;;;;;2.30;1.48;;;;;;;11.17;45.39;94903.69;5036264;28;20491;-76
2022/10/29 02:00:21;;;;;;;1.98;1.10;;;;;;;11.16;45.47;94902.09;5017624;28;20024;-77
2022/10/29 02:02:58;;;;;;;1.52;1.27;;;;;;;11.22;45.15;94915.31;5035627;28;20064;-77
2022/10/29 02:05:51;;;;;;;2.00;1.00;;;;;;;11.07;45.25;94898.50;5037308;28;20060;-77
2022/10/29 02:08:25;;;;;;;1.15;0.98;;;;;;;10.64;45.59;94833.16;5037434;28;20361;-76
2022/10/29 02:10:58;;;;;;;2.07;1.30;;;;;;;11.12;45.28;94916.28;5039164;28;20043;-77
2022/10/29 02:13:31;;;;;;;5.68;1.20;;;;;;;10.99;45.69;94898.38;5036987;28;20274;-78
2022/10/29 02:15:59;;;;;;;1.45;1.13;;;;;;;11.06;45.53;94920.88;5037127;28;20048;-78
2022/10/29 02:18:24;;;;;;;6.95;1.33;;;;;;;10.97;45.81;94895.19;5035580;28;20788;-78
2022/10/29 02:20:50;;;;;;;2.17;1.40;;;;;;;10.95;46.05;94892.03;5036856;28;20090;-78
2022/10/29 02:23:16;;;;;;;1.85;1.10;;;;;;;10.72;46.32;94865.22;5036821;28;20427;-77
2022/10/29 02:25:42;;;;;;;2.35;1.08;;;;;;;10.76;46.29;94878.72;5037778;28;20060;-77
2022/10/29 02:28:08;;;;;;;2.55;1.50;;;;;;;10.91;46.23;94893.69;5036934;28;20048;-78
2022/10/29 02:30:33;;;;;;;1.83;1.25;;;;;;;10.88;46.14;94886.28;5037555;28;20552;-76
2022/10/29 02:32:59;;;;;;;2.00;1.50;;;;;;;10.92;46.36;94901.38;5037576;28;20042;-78
2022/10/29 02:35:24;;;;;;;2.05;1.60;;;;;;;10.91;45.86;94902.47;5036969;28;20021;-78
2022/10/29 02:37:49;;;;;;;4.20;2.45;;;;;;;10.85;46.08;94895.66;5037223;28;20309;-77
2022/10/29 02:40:15;;;;;;;3.47;2.08;;;;;;;10.82;45.94;94890.88;5036670;28;20386;-77
2022/10/29 02:42:40;;;;;;;3.80;2.03;;;;;;;10.92;46.07;94904.03;5019715;28;20017;-77
2022/10/29 02:45:06;;;;;;;2.15;1.95;;;;;;;10.86;46.14;94889.22;5036220;28;20031;-76
2022/10/29 02:47:32;;;;;;;8.80;2.38;;;;;;;10.80;46.09;94882.41;5036284;28;20487;-77
2022/10/29 02:49:57;;;;;;;4.13;2.65;;;;;;;10.89;46.18;94894.00;5037733;28;20488;-78
2022/10/29 02:52:22;;;;;;;4.22;2.97;;;;;;;10.86;46.30;94896.41;5034481;28;20068;-77
2022/10/29 02:54:48;;;;;;;6.18;2.80;;;;;;;10.79;46.39;94890.69;5036481;28;20082;-77
2022/10/29 02:57:13;;;;;;;6.30;2.72;;;;;;;10.52;46.31;94851.38;5037514;28;20044;-78
2022/10/29 02:59:39;;;;;;;5.18;2.65;;;;;;;10.76;46.43;94886.69;5036803;28;20500;-78
2022/10/29 03:02:04;;;;;;;3.88;2.30;;;;;;;10.54;46.61;94860.69;5035204;28;20068;-76
2022/10/29 03:04:29;;;;;;;3.33;2.22;;;;;;;10.33;46.12;94838.84;5034532;28;20112;-77
2022/10/29 03:06:55;;;;;;;4.22;2.53;;;;;;;10.54;46.49;94873.19;5037582;28;20464;-77
2022/10/29 03:09:21;;;;;;;5.80;2.30;;;;;;;10.39;46.84;94857.44;5032890;28;20028;-77
2022/10/29 03:11:47;;;;;;;5.38;2.15;;;;;;;10.53;46.69;94890.22;5036093;28;20029;-77
2022/10/29 03:14:12;;;;;;;5.10;2.33;;;;;;;10.57;46.53;94893.88;5034373;28;20017;-77
2022/10/29 03:16:37;;;;;;;4.10;2.40;;;;;;;10.42;46.76;94878.13;5035228;28;20041;-77
2022/10/29 03:19:03;;;;;;;6.38;2.60;;;;;;;10.35;46.88;94867.03;5036040;28;20392;-77
2022/10/29 03:21:28;;;;;;;5.13;3.33;;;;;;;10.45;46.95;94874.91;5035197;28;20500;-77
2022/10/29 03:23:53;;;;;;;5.78;3.38;;;;;;;10.34;47.39;94858.25;5035240;28;20081;-78
2022/10/29 03:26:19;;;;;;;4.80;2.72;;;;;;;10.47;47.14;94878.06;5035184;28;20033;-77
2022/10/29 03:28:44;;;;;;;5.53;2.85;;;;;;;10.10;47.42;94825.59;5015655;28;20508;-77
2022/10/29 03:31:09;;;;;;;4.50;3.63;;;;;;;10.47;47.46;94881.50;5030795;28;20140;-77
2022/10/29 03:33:35;;;;;;;4.43;3.35;;;;;;;10.48;47.14;94882.31;5033811;28;20815;-77
2022/10/29 03:36:04;;;;;;;4.32;3.17;;;;;;;10.43;46.80;94866.41;5035279;28;20029;-78
2022/10/29 03:38:30;;;;;;;4.40;3.40;;;;;;;10.32;46.72;94855.88;5035083;28;20040;-77
2022/10/29 03:40:56;;;;;;;5.93;3.10;;;;;;;10.43;47.01;94877.06;5034612;28;20405;-77
2022/10/29 03:43:22;;;;;;;4.60;2.92;;;;;;;10.41;46.97;94876.56;5033084;28;20056;-77
2022/10/29 03:45:55;;;;;;;4.55;3.05;;;;;;;10.24;47.19;94853.88;5034372;28;20029;-76
2022/10/29 03:48:22;;;;;;;3.83;2.85;;;;;;;10.35;47.11;94867.81;5033201;28;21306;-76
2022/10/29 03:51:02;;;;;;;3.83;2.55;;;;;;;10.39;47.27;94868.88;5034763;28;20133;-76
2022/10/29 03:53:28;;;;;;;2.83;2.00;;;;;;;10.07;47.19;94819.00;5034445;28;20079;-76
2022/10/29 03:55:55;;;;;;;3.85;1.98;;;;;;;10.37;47.39;94867.56;5035679;28;20044;-77
2022/10/29 03:58:21;;;;;;;5.63;2.67;;;;;;;10.33;47.12;94868.09;5034478;28;20086;-77
2022/10/29 04:00:57;;;;;;;3.22;2.05;;;;;;;10.15;47.53;94852.91;5034624;28;20068;-77
2022/10/29 04:03:23;;;;;;;3.65;2.40;;;;;;;10.22;47.45;94860.56;5033894;28;20040;-78
2022/10/29 04:05:49;;;;;;;9.45;2.97;;;;;;;10.24;47.65;94877.78;5034381;28;20032;-77
2022/10/29 04:08:14;;;;;;;7.90;2.88;;;;;;;10.21;47.22;94870.41;5035910;28;20033;-77
2022/10/29 04:10:47;;;;;;;7.90;3.60;;;;;;;10.13;47.47;94884.28;5017210;28;20020;-77
2022/10/29 04:13:14;;;;;;;7.25;3.60;;;;;;;9.94;47.46;94862.19;5035370;28;20632;-77
2022/10/29 04:15:39;;;;;;;6.22;4.20;;;;;;;10.14;47.50;94887.75;5034422;28;20036;-77
2022/10/29 04:18:05;;;;;;;6.05;3.90;;;;;;;9.96;47.42;94853.94;5034011;28;20519;-77
2022/10/29 04:20:30;;;;;;;5.97;4.20;;;;;;;10.01;47.72;94867.97;5035385;28;20039;-78
2022/10/29 04:22:55;;;;;;;8.30;4.28;;;;;;;10.09;47.72;94893.91;5034393;28;20120;-77
2022/10/29 04:25:21;;;;;;;7.30;4.47;;;;;;;10.06;47.53;94883.88;5035774;28;20021;-78
2022/10/29 04:27:46;;;;;;;9.20;4.80;;;;;;;9.91;47.63;94870.75;5033266;28;20800;-78
2022/10/29 04:30:12;;;;;;;6.97;3.95;;;;;;;9.95;47.60;94876.28;5035923;28;20059;-78
2022/10/29 04:32:37;;;;;;;7.43;3.80;;;;;;;10.00;47.49;94892.16;5034059;28;20090;-77
2022/10/29 04:35:05;;;;;;;5.70;3.38;;;;;;;9.95;47.67;94895.69;5036419;28;20061;-78
2022/10/29 04:37:31;;;;;;;4.80;3.22;;;;;;;9.78;47.92;94866.88;5032160;28;20551;-77
2022/10/29 04:39:56;;;;;;;5.13;3.58;;;;;;;10.00;47.87;94897.47;5034598;28;21203;-77
2022/10/29 04:42:22;;;;;;;5.65;3.03;;;;;;;9.96;47.82;94889.28;5034907;28;21734;-77
2022/10/29 04:44:47;;;;;;;3.20;2.90;;;;;;;9.91;47.94;94878.72;5033759;28;20560;-77
2022/10/29 04:47:12;;;;;;;4.18;2.75;;;;;;;9.97;48.40;94888.22;5034198;28;20411;-77
2022/10/29 04:49:38;;;;;;;7.13;3.05;;;;;;;10.01;48.17;94889.25;5033709;28;20040;-77
2022/10/29 04:52:03;;;;;;;5.28;3.33;;;;;;;10.04;48.12;94893.97;5032886;28;20029;-77
2022/10/29 04:54:29;;;;;;;5.55;3.15;;;;;;;10.04;48.12;94901.94;5034887;28;20039;-77
2022/10/29 04:56:54;;;;;;;4.80;3.05;;;;;;;10.02;48.40;94904.13;5035464;28;20381;-77
2022/10/29 04:59:20;;;;;;;6.00;3.90;;;;;;;10.00;48.38;94903.59;5033389;28;20432;-78
2022/10/29 05:01:45;;;;;;;7.20;2.85;;;;;;;9.88;48.49;94881.91;5034952;28;20355;-76
2022/10/29 05:04:10;;;;;;;5.72;3.60;;;;;;;10.00;48.56;94900.94;5034977;28;20547;-77
2022/10/29 05:06:36;;;;;;;5.50;3.58;;;;;;;9.97;48.65;94890.09;5034111;28;20033;-77
2022/10/29 05:09:02;;;;;;;5.93;3.70;;;;;;;10.00;48.71;94895.63;5032129;28;20025;-77
2022/10/29 05:11:27;;;;;;;4.75;3.40;;;;;;;9.80;48.75;94855.97;5032001;28;20025;-78
2022/10/29 05:13:52;;;;;;;3.25;2.22;;;;;;;9.99;49.00;94893.25;5031746;28;20131;-77
2022/10/29 05:16:18;;;;;;;3.10;2.20;;;;;;;9.72;49.13;94851.28;5033524;28;20060;-77
2022/10/29 05:18:43;;;;;;;5.13;2.80;;;;;;;9.94;48.92;94883.47;5033856;28;20378;-77
2022/10/29 05:21:08;;;;;;;5.07;3.38;;;;;;;9.87;48.93;94869.72;5037761;28;20044;-77
2022/10/29 05:23:34;;;;;;;5.22;2.53;;;;;;;9.83;48.89;94858.84;5035291;28;20028;-77
2022/10/29 05:26:00;;;;;;;5.57;2.50;;;;;;;9.89;48.92;94878.19;5031662;28;20108;-77
2022/10/29 05:28:25;;;;;;;4.75;3.30;;;;;;;9.88;48.86;94877.41;5033648;28;20028;-77
2022/10/29 05:30:52;;;;;;;13.00;3.40;;;;;;;9.92;49.13;94879.50;5035017;28;20529;-76
2022/10/29 05:33:19;;;;;;;4.53;2.80;;;;;;;10.05;49.02;94898.22;5014973;28;20059;-77
2022/10/29 05:35:45;;;;;;;14.40;3.55;;;;;;;10.08;49.01;94900.31;5015328;28;20017;-77
2022/10/29 05:38:12;;;;;;;6.88;3.22;;;;;;;9.82;49.16;94849.31;5025435;28;20037;-77
2022/10/29 05:40:39;;;;;;;8.45;3.25;;;;;;;10.15;49.11;94892.78;5030760;28;20110;-77
2022/10/29 05:43:04;;;;;;;5.28;2.28;;;;;;;10.11;49.07;94885.66;5031229;28;20021;-77
2022/10/29 05:45:30;;;;;;;11.15;3.30;;;;;;;10.29;49.36;94909.63;5025205;28;20574;-77
2022/10/29 05:48:00;;;;;;;5.72;2.70;;;;;;;10.35;49.05;94912.25;5028865;28;20131;-76
2022/10/29 05:50:25;;;;;;;16.60;4.22;;;;;;;10.41;49.06;94911.13;5023385;28;20234;-77
2022/10/29 05:52:58;;;;;;;13.38;3.58;;;;;;;10.47;49.15;94918.75;5028545;28;20063;-76
2022/10/29 05:55:25;;;;;;;5.63;3.50;;;;;;;10.47;49.21;94910.78;5010685;28;20060;-77
2022/10/29 05:58:01;;;;;;;6.18;3.63;;;;;;;10.42;49.09;94891.41;5035089;28;20405;-77
2022/10/29 06:00:29;;;;;;;13.50;4.72;;;;;;;10.64;49.28;94918.28;5025330;28;20020;-77
2022/10/29 06:02:55;;;;;;;12.50;5.40;;;;;;;10.61;48.98;94905.56;5032174;28;20127;-77
2022/10/29 06:05:22;;;;;;;12.50;5.60;;;;;;;10.77;49.00;94919.44;5027882;28;20021;-77
2022/10/29 06:07:53;;;;;;;12.13;6.45;;;;;;;10.76;49.10;94910.66;5023949;28;20045;-76
2022/10/29 06:10:19;;;;;;;17.23;7.15;;;;;;;10.72;49.35;94901.66;5029108;28;20051;-76
2022/10/29 06:12:44;;;;;;;19.17;6.78;;;;;;;10.91;48.95;94929.06;5007109;28;20024;-76
2022/10/29 06:15:09;;;;;;;14.75;7.57;;;;;;;10.99;49.10;94923.13;5004150;28;20170;-78
2022/10/29 06:17:40;;;;;;;13.25;6.80;;;;;;;11.06;48.93;94936.84;5032666;28;20068;-77
2022/10/29 06:20:06;;;;;;;13.75;6.55;;;;;;;11.04;48.58;94919.59;5031433;28;20027;-76
2022/10/29 06:22:31;;;;;;;19.75;8.68;;;;;;;10.95;48.63;94906.16;5032631;28;20127;-76
2022/10/29 06:24:56;;;;;;;16.02;9.82;;;;;;;11.05;48.58;94902.53;5012920;28;20496;-76
2022/10/29 06:27:22;;;;;;;16.17;9.23;;;;;;;11.35;48.50;94933.22;5010558;28;20081;-78
2022/10/29 06:29:47;;;;;;;16.45;8.90;;;;;;;11.35;48.33;94920.69;5030750;28;20116;-78
2022/10/29 06:32:13;;;;;;;19.45;8.20;;;;;;;11.40;48.27;94911.84;5029591;28;20060;-76
2022/10/29 06:34:38;;;;;;;11.02;7.22;;;;;;;11.07;48.45;94850.56;5032008;28;20480;-76
2022/10/29 06:37:03;;;;;;;16.38;7.78;;;;;;;11.56;48.17;94915.88;5034273;28;20025;-77
2022/10/29 06:39:29;;;;;;;14.45;7.65;;;;;;;11.10;48.51;94846.56;5033475;28;20102;-77
2022/10/29 06:41:54;;;;;;;12.07;7.50;;;;;;;11.59;48.32;94921.41;5032306;28;20025;-77
2022/10/29 06:44:19;;;;;;;11.43;6.80;;;;;;;11.53;48.50;94895.16;5034183;28;20064;-77
2022/10/29 06:46:45;;;;;;;15.23;8.38;;;;;;;11.71;48.13;94909.47;5031514;28;20805;-77
2022/10/29 06:49:10;;;;;;;14.25;8.50;;;;;;;11.31;47.77;94842.47;5029295;28;20028;-78
2022/10/29 06:51:35;;;;;;;16.70;9.43;;;;;;;11.66;47.62;94878.38;5029007;28;20532;-78
2022/10/29 06:54:01;;;;;;;23.63;12.73;;;;;;;11.62;47.58;94893.38;5032319;28;20035;-77
2022/10/29 06:56:26;;;;;;;23.35;11.85;;;;;;;11.83;48.00;94912.47;5029777;28;20025;-79
2022/10/29 06:58:52;;;;;;;22.13;13.48;;;;;;;11.86;47.83;94906.56;5034437;28;20178;-77
2022/10/29 07:01:17;;;;;;;24.05;12.98;;;;;;;11.75;47.46;94892.63;5033363;28;20494;-77
2022/10/29 07:03:42;;;;;;;25.25;13.65;;;;;;;11.88;47.86;94917.72;5033788;28;20731;-77
2022/10/29 07:06:08;;;;;;;22.13;12.93;;;;;;;12.12;47.48;94920.22;5030146;28;20256;-77
2022/10/29 07:08:33;;;;;;;25.63;13.50;;;;;;;11.51;47.67;94898.09;5031778;28;20020;-77
2022/10/29 07:11:01;;;;;;;27.80;14.93;;;;;;;11.77;47.53;94901.13;5031942;28;20033;-77
2022/10/29 07:13:27;;;;;;;29.65;15.65;;;;;;;12.12;47.17;94941.56;5032191;28;20033;-77
2022/10/29 07:15:52;;;;;;;25.95;14.13;;;;;;;12.00;46.97;94918.81;5010836;28;20032;-78
2022/10/29 07:18:18;;;;;;;25.05;15.23;;;;;;;12.04;46.92;94917.13;5032101;28;20498;-77
2022/10/29 07:20:44;;;;;;;24.45;13.60;;;;;;;12.08;46.89;94943.22;5031274;28;20036;-77
2022/10/29 07:23:11;;;;;;;30.45;15.27;;;;;;;12.18;46.66;94930.47;5030748;28;20036;-77
2022/10/29 07:25:38;;;;;;;28.52;14.70;;;;;;;11.98;46.77;94891.66;5028302;28;20033;-76
2022/10/29 07:28:10;;;;;;;25.80;15.10;;;;;;;12.40;46.53;94943.94;5029294;28;20052;-78
2022/10/29 07:30:36;;;;;;;26.52;14.07;;;;;;;12.22;46.98;94942.16;5011641;28;20139;-77
2022/10/29 07:33:02;;;;;;;30.48;15.95;;;;;;;12.31;46.86;94939.59;5031110;28;20028;-77
2022/10/29 07:35:27;;;;;;;33.20;16.88;;;;;;;12.31;46.81;94937.72;5027814;28;20238;-77
2022/10/29 07:38:00;;;;;;;27.70;14.10;;;;;;;12.31;47.14;94920.91;5027524;28;20413;-78
2022/10/29 07:40:27;;;;;;;29.20;14.20;;;;;;;12.40;46.80;94929.81;5021568;28;20663;-77
2022/10/29 07:42:52;;;;;;;25.80;14.35;;;;;;;12.45;46.75;94921.69;5027747;28;20481;-76
2022/10/29 07:45:19;;;;;;;28.00;14.52;;;;;;;12.70;46.46;94939.09;5027564;28;20425;-78
2022/10/29 07:47:45;;;;;;;27.20;15.50;;;;;;;12.78;46.48;94928.50;5031788;28;20364;-77
2022/10/29 07:50:11;;;;;;;28.27;16.17;;;;;;;12.69;46.06;94908.16;5008294;28;20369;-77
2022/10/29 07:52:38;;;;;;;24.73;14.20;;;;;;;12.92;46.08;94930.34;5032478;28;20101;-77
2022/10/29 07:55:04;;;;;;;21.27;14.32;;;;;;;13.00;46.17;94929.66;5030770;28;20683;-77
2022/10/29 07:57:30;;;;;;;20.70;13.85;;;;;;;12.78;46.29;94920.50;5029204;28;20499;-77
2022/10/29 07:59:55;;;;;;;23.55;13.40;;;;;;;12.88;46.34;94922.94;5026011;28;20119;-76
2022/10/29 08:02:20;;;;;;;22.83;12.50;;;;;;;12.62;46.21;94873.84;5025602;28;20032;-77
2022/10/29 08:04:46;;;;;;;22.58;13.13;;;;;;;13.02;46.25;94924.78;5027123;28;20041;-77
2022/10/29 08:07:11;;;;;;;17.77;12.57;;;;;;;13.11;46.32;94930.97;5029934;28;20465;-77
2022/10/29 08:09:36;;;;;;;19.73;12.23;;;;;;;13.10;45.97;94914.19;5028513;28;20108;-77
2022/10/29 08:12:03;;;;;;;22.70;13.32;;;;;;;13.07;45.94;94917.44;5033696;28;20052;-78
2022/10/29 08:14:29;;;;;;;19.67;13.60;;;;;;;13.03;45.85;94921.81;5034046;28;20021;-78
2022/10/29 08:16:54;;;;;;;20.40;11.80;;;;;;;13.21;45.98;94926.22;5010409;28;20079;-76
2022/10/29 08:19:20;;;;;;;32.10;13.02;;;;;;;13.17;45.94;94905.75;5015002;28;20041;-76
2022/10/29 08:21:46;;;;;;;24.90;13.35;;;;;;;13.34;45.39;94924.59;5009332;28;20691;-77
2022/10/29 08:24:11;;;;;;;26.45;13.35;;;;;;;13.35;45.41;94914.69;5009905;28;20120;-77
2022/10/29 08:26:36;;;;;;;24.67;12.73;;;;;;;13.30;45.50;94897.66;5008613;28;20503;-76
2022/10/29 08:29:03;;;;;;;22.52;12.85;;;;;;;13.40;45.66;94888.63;5008290;28;20148;-75
2022/10/29 08:31:28;;;;;;;28.73;12.60;;;;;;;13.61;45.22;94905.78;5023209;28;20021;-78
2022/10/29 08:33:53;;;;;;;21.60;12.20;;;;;;;13.67;45.27;94899.22;5011088;28;20508;-78
2022/10/29 08:36:19;;;;;;;21.15;12.68;;;;;;;13.69;45.34;94898.91;5010293;28;20202;-77
2022/10/29 08:38:46;;;;;;;21.33;11.25;;;;;;;13.79;45.18;94900.53;5011515;28;20385;-77
2022/10/29 08:41:26;;;;;;;21.83;12.82;;;;;;;13.86;45.21;94911.59;5011523;28;20052;-77
2022/10/29 08:44:00;;;;;;;17.45;11.82;;;;;;;13.88;44.62;94914.75;5009893;28;20028;-77
2022/10/29 08:46:45;;;;;;;17.40;11.30;;;;;;;13.91;44.76;94909.56;5010620;28;20060;-76
2022/10/29 08:49:34;;;;;;;22.50;12.23;;;;;;;14.00;44.50;94906.94;5026003;28;20270;-78
2022/10/29 08:52:05;;;;;;;21.00;11.80;;;;;;;13.91;44.30;94890.06;5013892;28;20033;-77
2022/10/29 08:54:34;;;;;;;19.27;11.27;;;;;;;14.13;44.20;94908.75;5014011;28;20072;-77
2022/10/29 08:57:07;;;;;;;17.65;10.65;;;;;;;14.17;44.20;94890.97;5016212;28;20541;-77
2022/10/29 08:59:38;;;;;;;13.73;9.43;;;;;;;14.14;43.77;94867.50;5028828;28;20079;-77
2022/10/29 09:02:13;;;;;;;14.00;8.57;;;;;;;14.42;43.38;94876.09;5013573;28;20088;-78
2022/10/29 09:04:39;;;;;;;;;;;;;;;14.50;42.89;94886.81;5022680;28;20029;-77
2022/10/29 09:07:27;;;;;;;16.93;7.97;;;;;;;14.50;42.85;94889.50;5014227;28;19990;-78
2022/10/29 09:10:27;;;;;;;11.32;6.72;;;;;;;14.64;42.79;94893.94;5014674;28;20339;-77
2022/10/29 09:13:23;;;;;;;9.05;6.35;;;;;;;14.70;42.70;94884.69;5016484;28;20555;-77
2022/10/29 09:15:57;;;;;;;9.75;6.95;;;;;;;14.77;42.20;94901.06;5016242;28;20091;-77
2022/10/29 09:19:03;;;;;;;12.85;6.60;;;;;;;14.77;42.07;94888.47;5034515;28;20037;-77
2022/10/29 09:21:41;;;;;;;14.50;6.55;;;;;;;14.73;41.93;94890.19;5034649;28;20020;-77
2022/10/29 09:24:16;;;;;;;14.57;7.22;;;;;;;14.89;42.10;94888.63;5032468;28;20087;-76
2022/10/29 09:26:50;;;;;;;15.23;7.22;;;;;;;14.74;41.76;94859.63;5033338;28;20037;-77
2022/10/29 09:29:32;;;;;;;8.30;5.53;;;;;;;14.99;41.49;94868.78;5035355;28;20053;-77
2022/10/29 09:32:21;;;;;;;7.47;5.78;;;;;;;15.06;41.72;94879.06;5035862;28;20522;-78
2022/10/29 09:34:51;;;;;;;10.18;6.28;;;;;;;15.16;41.42;94879.50;5035955;28;20029;-78
2022/10/29 09:37:26;;;;;;;8.57;5.82;;;;;;;15.17;41.30;94864.22;5023368;28;20028;-77
2022/10/29 09:39:54;;;;;;;8.18;5.47;;;;;;;15.01;41.43;94850.50;5032463;28;20033;-77
2022/10/29 09:42:35;;;;;;;9.05;6.22;;;;;;;14.88;41.87;94867.53;5036603;28;20036;-78
2022/10/29 09:45:08;;;;;;;13.18;5.75;;;;;;;14.98;41.96;94867.22;5020384;28;20574;-77
2022/10/29 09:47:34;;;;;;;11.50;6.22;;;;;;;15.21;41.57;94871.31;5037246;28;20040;-77
2022/10/29 09:50:17;;;;;;;8.27;5.70;;;;;;;15.32;41.50;94850.31;5038723;28;20033;-77
2022/10/29 09:52:46;;;;;;;9.93;5.75;;;;;;;15.26;41.42;94833.63;5038488;28;20617;-78
2022/10/29 09:55:24;;;;;;;11.07;6.53;;;;;;;15.24;40.68;94833.16;5019307;28;20025;-78
2022/10/29 09:57:49;;;;;;;8.32;5.15;;;;;;;15.40;41.12;94826.19;5037118;28;20025;-77
2022/10/29 10:00:17;;;;;;;6.20;4.22;;;;;;;15.65;40.99;94845.22;5020347;28;20029;-77
2022/10/29 10:02:47;;;;;;;6.57;5.00;;;;;;;15.71;41.10;94838.59;5036522;28;20024;-77
2022/10/29 10:05:12;;;;;;;8.15;4.88;;;;;;;15.86;41.08;94838.09;5027596;28;20021;-77
2022/10/29 10:07:41;;;;;;;8.02;4.25;;;;;;;16.00;40.91;94833.28;5037256;28;20053;-78
2022/10/29 10:10:20;;;;;;;8.25;5.07;;;;;;;15.89;40.80;94795.28;5031072;28;20148;-75
2022/10/29 10:12:47;;;;;;;13.05;4.95;;;;;;;16.24;40.05;94830.00;5039358;28;20028;-77
2022/10/29 10:15:24;;;;;;;4.75;3.58;;;;;;;16.13;40.17;94821.56;5035531;28;20024;-77
2022/10/29 10:17:55;;;;;;;5.20;3.45;;;;;;;16.14;39.76;94815.06;5036937;28;20392;-76
2022/10/29 10:21:07;;;;;;;5.30;3.60;;;;;;;16.14;40.37;94807.00;5034480;28;20059;-75
2022/10/29 10:23:59;;;;;;;5.93;3.22;;;;;;;16.33;40.02;94801.25;5035685;28;20505;-74
2022/10/29 10:26:38;;;;;;;6.60;3.58;;;;;;;16.45;39.40;94803.25;5007652;28;20032;-75
2022/10/29 10:29:14;;;;;;;6.63;4.20;;;;;;;16.55;39.71;94800.19;5035518;28;20557;-74
2022/10/29 10:31:42;;;;;;;4.95;3.17;;;;;;;16.51;39.20;94785.84;5038358;28;20726;-76
2022/10/29 10:34:15;;;;;;;4.00;2.55;;;;;;;16.51;38.93;94773.19;5033325;28;20064;-77
2022/10/29 10:36:44;;;;;;;3.17;2.53;;;;;;;16.67;39.79;94786.84;5037985;28;20029;-77
2022/10/29 10:39:35;;;;;;;4.78;2.17;;;;;;;16.83;39.33;94785.09;5033958;28;20079;-77
2022/10/29 10:42:13;;;;;;;3.53;2.10;;;;;;;16.95;38.71;94777.13;5007756;28;20033;-76
2022/10/29 10:44:46;;;;;;;9.00;2.25;;;;;;;16.83;39.13;94742.13;5036092;28;20083;-77
2022/10/29 10:47:11;;;;;;;4.38;2.08;;;;;;;16.91;39.22;94753.91;5033944;28;20052;-76
2022/10/29 10:49:37;;;;;;;4.30;2.17;;;;;;;17.05;38.52;94776.72;5035296;28;20107;-78
2022/10/29 10:52:16;;;;;;;3.95;2.60;;;;;;;16.88;38.18;94739.22;5017147;28;20029;-76
2022/10/29 10:54:52;;;;;;;2.55;1.75;;;;;;;16.98;38.27;94730.75;5034346;28;20032;-76
2022/10/29 10:57:20;;;;;;;6.45;2.15;;;;;;;17.17;37.84;94752.56;5034817;28;20025;-76
2022/10/29 11:00:06;;;;;;;3.70;2.53;;;;;;;17.27;37.62;94750.59;5016909;28;20035;-77
2022/10/29 11:02:49;;;;;;;14.65;3.13;;;;;;;17.35;37.38;94752.41;5036463;28;20021;-77
2022/10/29 11:05:19;;;;;;;4.18;2.47;;;;;;;17.36;37.45;94754.75;5036911;28;20408;-77
2022/10/29 11:07:56;;;;;;;3.15;2.10;;;;;;;17.39;37.38;94748.72;5036020;28;20429;-76
2022/10/29 11:10:32;;;;;;;5.97;2.08;;;;;;;17.41;37.40;94732.25;5034692;28;20523;-77
2022/10/29 11:13:03;;;;;;;6.65;2.88;;;;;;;17.36;36.97;94710.94;5037707;28;20564;-77
2022/10/29 11:15:41;;;;;;;4.97;2.00;;;;;;;17.53;37.11;94735.75;5036233;28;20021;-78
2022/10/29 11:18:21;;;;;;;2.90;2.08;;;;;;;17.51;36.49;94719.16;5036473;28;20052;-77
2022/10/29 11:21:02;;;;;;;4.22;1.70;;;;;;;17.68;36.07;94723.53;5037909;28;20024;-77
2022/10/29 11:23:55;;;;;;;4.50;1.80;;;;;;;17.71;35.76;94722.84;5035648;28;20024;-76
2022/10/29 11:26:34;;;;;;;2.85;2.17;;;;;;;17.76;36.11;94714.56;5034670;28;20551;-77
2022/10/29 11:29:14;;;;;;;2.88;1.80;;;;;;;17.66;35.50;94706.94;5038019;28;20028;-76
2022/10/29 11:32:02;;;;;;;4.25;1.90;;;;;;;17.66;35.28;94687.31;5036393;28;20590;-78
2022/10/29 11:34:36;;;;;;;3.45;1.67;;;;;;;17.74;35.38;94703.38;5036013;28;20028;-78
2022/10/29 11:37:30;;;;;;;4.63;1.90;;;;;;;17.56;35.56;94704.69;5037956;28;20032;-76
2022/10/29 11:40:02;;;;;;;4.75;2.35;;;;;;;17.52;35.29;94687.66;5038611;28;20028;-77
2022/10/29 11:42:28;;;;;;;4.35;1.95;;;;;;;17.60;35.24;94689.44;5037652;28;20033;-76